createdAt,value
2019-01-25T00:01:06.691Z,-0.70
2019-01-25T00:03:38.140Z,-0.60
2019-01-25T00:06:09.210Z,-0.60
2019-01-25T00:08:41.038Z,-0.70
2019-01-25T00:11:11.495Z,-0.70
2019-01-25T00:13:42.005Z,-0.60
2019-01-25T00:16:12.755Z,-0.60
2019-01-25T00:18:43.549Z,-0.60
2019-01-25T00:21:16.096Z,-0.60
2019-01-25T00:23:46.630Z,-0.60
2019-01-25T00:26:17.207Z,-0.60
2019-01-25T00:28:47.737Z,-0.60
2019-01-25T00:31:18.259Z,-0.70
2019-01-25T00:33:50.271Z,-0.70
2019-01-25T00:36:20.832Z,-0.70
2019-01-25T00:38:51.358Z,-0.60
2019-01-25T00:41:21.865Z,-0.60
2019-01-25T00:43:52.438Z,-0.60
2019-01-25T00:46:23.222Z,-0.60
2019-01-25T00:48:54.051Z,-0.60
2019-01-25T00:51:24.530Z,-0.60
2019-01-25T00:53:55.130Z,-0.60
2019-01-25T00:56:25.710Z,-0.70
2019-01-25T00:58:56.271Z,-0.70
2019-01-25T01:01:27.057Z,-0.70
2019-01-25T01:03:57.758Z,-0.70
2019-01-25T01:06:28.237Z,-0.70
2019-01-25T01:08:58.841Z,-0.70
2019-01-25T01:11:29.286Z,-0.70
2019-01-25T01:13:59.829Z,-0.70
2019-01-25T01:16:30.316Z,-0.60
2019-01-25T01:19:01.098Z,-0.60
2019-01-25T01:21:31.669Z,-0.70
2019-01-25T01:24:02.196Z,-0.70
2019-01-25T01:26:32.721Z,-0.80
2019-01-25T01:29:03.364Z,-0.70
2019-01-25T01:31:33.974Z,-0.70
2019-01-25T01:34:13.465Z,-0.80
2019-01-25T01:36:49.787Z,-0.80
2019-01-25T01:39:26.411Z,-0.70
2019-01-25T01:41:57.483Z,-0.70
2019-01-25T01:44:28.066Z,-0.70
2019-01-25T01:46:58.541Z,-0.70
2019-01-25T01:49:29.086Z,-0.70
2019-01-25T01:51:59.587Z,-0.80
2019-01-25T01:54:30.095Z,-0.80
2019-01-25T01:57:00.590Z,-0.80
2019-01-25T01:59:31.325Z,-0.80
2019-01-25T02:02:01.874Z,-0.90
2019-01-25T02:04:32.691Z,-0.90
2019-01-25T02:07:04.260Z,-0.90
2019-01-25T02:09:35.695Z,-0.90
2019-01-25T02:12:06.164Z,-0.90
2019-01-25T02:14:36.674Z,-0.90
2019-01-25T02:17:07.155Z,-0.90
2019-01-25T02:19:37.640Z,-0.90
2019-01-25T02:22:08.115Z,-0.90
2019-01-25T02:24:39.029Z,-0.90
2019-01-25T02:27:09.505Z,-0.90
2019-01-25T02:29:39.985Z,-0.90
2019-01-25T02:32:10.526Z,-0.90
2019-01-25T02:34:41.390Z,-0.90
2019-01-25T02:37:11.867Z,-0.90
2019-01-25T02:39:43.256Z,-0.90
2019-01-25T02:42:13.800Z,-0.90
2019-01-25T02:44:44.248Z,-0.80
2019-01-25T02:47:15.611Z,-0.90
2019-01-25T02:49:46.097Z,-0.80
2019-01-25T02:52:16.683Z,-0.80
2019-01-25T02:54:47.199Z,-0.90
2019-01-25T02:57:17.839Z,-0.90
2019-01-25T02:59:48.334Z,-0.90
2019-01-25T03:02:18.950Z,-0.90
2019-01-25T03:04:49.457Z,-0.90
2019-01-25T03:07:19.964Z,-0.90
2019-01-25T03:09:50.824Z,-0.90
2019-01-25T03:12:21.314Z,-0.90
2019-01-25T03:14:52.087Z,-1.00
2019-01-25T03:17:22.577Z,-1.00
2019-01-25T03:19:53.094Z,-1.00
2019-01-25T03:22:23.586Z,-1.00
2019-01-25T03:24:54.095Z,-1.00
2019-01-25T03:27:24.571Z,-1.00
2019-01-25T03:29:55.070Z,-1.00
2019-01-25T03:32:25.583Z,-1.00
2019-01-25T03:34:56.122Z,-1.00
2019-01-25T03:37:26.990Z,-1.00
2019-01-25T03:39:57.558Z,-1.00
2019-01-25T03:42:28.115Z,-1.00
2019-01-25T03:44:58.609Z,-1.00
2019-01-25T03:47:29.096Z,-1.00
2019-01-25T03:49:59.601Z,-1.00
2019-01-25T03:52:30.103Z,-0.90
2019-01-25T03:55:00.679Z,-0.90
2019-01-25T03:57:31.176Z,-0.90
2019-01-25T04:00:02.029Z,-1.00
2019-01-25T04:02:32.511Z,-1.00
2019-01-25T04:05:03.093Z,-1.00
2019-01-25T04:07:33.738Z,-1.00
2019-01-25T04:10:06.820Z,-1.00
2019-01-25T04:12:37.948Z,-1.10
2019-01-25T04:15:10.591Z,-1.20
2019-01-25T04:17:41.308Z,-1.20
2019-01-25T04:20:13.406Z,-1.20
2019-01-25T04:22:43.879Z,-1.30
2019-01-25T04:25:16.782Z,-1.30
2019-01-25T04:27:47.364Z,-1.40
2019-01-25T04:30:23.300Z,-1.40
2019-01-25T04:32:53.866Z,-1.50
2019-01-25T04:35:24.423Z,-1.50
2019-01-25T04:37:54.879Z,-1.60
2019-01-25T04:40:25.386Z,-1.70
2019-01-25T04:42:55.894Z,-1.80
2019-01-25T04:45:27.388Z,-1.90
2019-01-25T04:47:58.174Z,-1.90
2019-01-25T04:50:28.689Z,-2.00
2019-01-25T04:52:59.217Z,-2.10
2019-01-25T04:55:33.854Z,-2.10
2019-01-25T04:58:07.835Z,-2.20
2019-01-25T05:00:38.415Z,-2.20
2019-01-25T05:03:10.071Z,-2.20
2019-01-25T05:05:40.569Z,-2.30
2019-01-25T05:08:16.655Z,-2.30
2019-01-25T05:10:47.927Z,-2.30
2019-01-25T05:13:18.486Z,-2.40
2019-01-25T05:15:48.982Z,-2.40
2019-01-25T05:18:19.450Z,-2.40
2019-01-25T05:20:50.910Z,-2.40
2019-01-25T05:23:21.651Z,-2.30
2019-01-25T05:25:52.130Z,-2.40
2019-01-25T05:28:22.774Z,-2.40
2019-01-25T05:31:05.721Z,-2.50
2019-01-25T05:33:36.195Z,-2.50
2019-01-25T05:36:07.175Z,-2.50
2019-01-25T05:38:37.803Z,-2.60
2019-01-25T05:41:08.304Z,-2.60
2019-01-25T05:43:42.977Z,-2.60
2019-01-25T05:46:13.458Z,-2.70
2019-01-25T05:48:43.967Z,-2.70
2019-01-25T05:51:14.461Z,-2.70
2019-01-25T05:53:49.834Z,-2.70
2019-01-25T05:56:20.853Z,-2.80
2019-01-25T05:58:51.374Z,-2.80
2019-01-25T06:01:21.859Z,-2.70
2019-01-25T06:03:52.358Z,-2.70
2019-01-25T06:06:22.840Z,-2.70
2019-01-25T06:08:53.599Z,-2.60
2019-01-25T06:11:24.294Z,-2.50
2019-01-25T06:13:54.775Z,-2.50
2019-01-25T06:16:25.334Z,-2.50
2019-01-25T06:18:55.807Z,-2.40
2019-01-25T06:21:26.615Z,-2.40
2019-01-25T06:23:57.101Z,-2.40
2019-01-25T06:26:27.630Z,-2.40
2019-01-25T06:28:58.118Z,-2.40
2019-01-25T06:31:28.636Z,-2.40
2019-01-25T06:33:59.117Z,-2.40
2019-01-25T06:36:29.657Z,-2.50
2019-01-25T06:39:00.155Z,-2.40
2019-01-25T06:41:30.633Z,-2.50
2019-01-25T06:44:01.124Z,-2.50
2019-01-25T06:46:31.962Z,-2.50
2019-01-25T06:49:02.608Z,-2.50
2019-01-25T06:51:33.279Z,-2.60
2019-01-25T06:54:03.981Z,-2.50
2019-01-25T06:56:34.458Z,-2.50
2019-01-25T06:59:13.273Z,-2.50
2019-01-25T07:01:56.434Z,-2.40
2019-01-25T07:04:27.005Z,-2.40
2019-01-25T07:06:57.486Z,-2.40
2019-01-25T07:09:27.966Z,-2.40
2019-01-25T07:11:58.466Z,-2.30
2019-01-25T07:14:28.959Z,-2.30
2019-01-25T07:16:58.476Z,-2.20
2019-01-25T07:19:27.835Z,-2.20
2019-01-25T07:21:57.227Z,-2.10
2019-01-25T07:24:29.690Z,-2.10
2019-01-25T07:26:58.966Z,-2.00
2019-01-25T07:29:28.250Z,-2.00
2019-01-25T07:31:57.541Z,-1.90
2019-01-25T07:34:26.923Z,-1.90
2019-01-25T07:36:56.196Z,-1.90
2019-01-25T07:39:27.385Z,-1.90
2019-01-25T07:41:59.421Z,-1.90
2019-01-25T07:44:27.667Z,-1.80
2019-01-25T07:46:56.948Z,-1.80
2019-01-25T07:49:26.282Z,-1.80
2019-01-25T07:51:55.597Z,-1.70
2019-01-25T07:54:25.012Z,-1.70
2019-01-25T07:56:54.378Z,-1.70
2019-01-25T07:59:23.642Z,-1.70
2019-01-25T08:01:52.977Z,-1.60
2019-01-25T08:04:22.299Z,-1.50
2019-01-25T08:06:52.319Z,-1.50
2019-01-25T08:09:21.640Z,-1.40
2019-01-25T08:11:50.934Z,-1.30
2019-01-25T08:14:20.223Z,-1.20
2019-01-25T08:16:49.550Z,-1.20
2019-01-25T08:19:18.870Z,-1.10
2019-01-25T08:21:48.140Z,-1.00
2019-01-25T08:24:17.491Z,-0.90
2019-01-25T08:26:46.870Z,-0.80
2019-01-25T08:29:16.140Z,-0.70
2019-01-25T08:31:45.410Z,-0.70
2019-01-25T08:34:14.704Z,-0.60
2019-01-25T08:36:44.013Z,-0.60
2019-01-25T08:39:13.258Z,-0.50
2019-01-25T08:41:42.547Z,-0.50
2019-01-25T08:44:11.847Z,-0.50
2019-01-25T08:46:41.120Z,-0.50
2019-01-25T08:49:10.481Z,-0.40
2019-01-25T08:51:39.916Z,-0.30
2019-01-25T08:54:09.175Z,-0.30
2019-01-25T08:56:38.808Z,-0.20
2019-01-25T08:59:08.265Z,-0.20
2019-01-25T09:01:37.645Z,-0.10
2019-01-25T09:04:06.895Z,0.00
2019-01-25T09:06:36.172Z,0.10
2019-01-25T09:09:07.891Z,0.20
2019-01-25T09:11:38.266Z,0.30
2019-01-25T09:17:57.561Z,0.50
2019-01-25T09:20:28.025Z,0.60
2019-01-25T09:22:58.486Z,0.70
2019-01-25T09:25:28.988Z,0.80
2019-01-25T09:28:00.020Z,0.80
2019-01-25T09:30:33.872Z,0.90
2019-01-25T09:33:06.031Z,0.90
2019-01-25T09:35:36.551Z,0.90
2019-01-25T09:38:08.136Z,0.90
2019-01-25T09:40:38.639Z,1.00
2019-01-25T09:43:09.142Z,1.00
2019-01-25T09:45:39.681Z,1.00
2019-01-25T09:48:11.149Z,1.00
2019-01-25T09:50:41.620Z,1.10
2019-01-25T09:53:12.107Z,1.20
2019-01-25T09:55:42.566Z,1.20
2019-01-25T09:58:15.393Z,1.40
2019-01-25T10:01:06.830Z,1.60
2019-01-25T10:03:37.292Z,1.90
2019-01-25T10:06:07.754Z,2.10
2019-01-25T10:08:38.251Z,2.10
2019-01-25T10:11:08.698Z,2.20
2019-01-25T10:13:39.197Z,2.20
2019-01-25T10:16:10.855Z,2.40
2019-01-25T10:18:41.335Z,2.50
2019-01-25T10:21:11.796Z,2.70
2019-01-25T10:23:43.315Z,2.70
2019-01-25T10:26:14.101Z,2.90
2019-01-25T10:28:44.547Z,3.20
2019-01-25T10:31:15.519Z,3.50
2019-01-25T10:33:46.277Z,3.90
2019-01-25T10:36:16.744Z,4.20
2019-01-25T10:38:47.238Z,4.70
2019-01-25T10:41:17.747Z,5.00
2019-01-25T10:43:48.641Z,5.20
2019-01-25T10:46:20.178Z,5.30
2019-01-25T10:48:50.638Z,5.30
2019-01-25T10:51:21.093Z,5.70
2019-01-25T10:53:51.631Z,6.30
2019-01-25T10:56:22.087Z,6.90
2019-01-25T10:58:53.221Z,7.30
2019-01-25T11:01:24.052Z,7.30
2019-01-25T11:03:54.516Z,7.70
2019-01-25T11:06:25.064Z,8.10
2019-01-25T11:08:55.520Z,8.50
2019-01-25T11:11:25.982Z,8.90
2019-01-25T11:13:56.482Z,9.20
2019-01-25T11:16:26.945Z,9.40
2019-01-25T11:18:57.398Z,8.90
2019-01-25T11:21:27.863Z,8.20
2019-01-25T11:23:58.314Z,8.10
2019-01-25T11:26:28.774Z,8.30
2019-01-25T11:28:59.619Z,8.60
2019-01-25T11:31:30.405Z,8.70
2019-01-25T11:34:00.877Z,8.30
2019-01-25T11:36:31.348Z,8.20
2019-01-25T11:39:01.798Z,8.50
2019-01-25T11:41:33.626Z,8.80
2019-01-25T11:44:04.087Z,8.90
2019-01-25T11:46:34.526Z,9.10
2019-01-25T11:49:06.069Z,9.50
2019-01-25T11:51:36.537Z,10.10
2019-01-25T11:54:26.094Z,10.50
2019-01-25T11:56:56.610Z,10.70
2019-01-25T11:59:27.082Z,11.20
2019-01-25T12:01:57.582Z,11.80
2019-01-25T12:04:28.143Z,12.10
2019-01-25T12:06:58.618Z,12.50
2019-01-25T12:09:29.195Z,12.70
2019-01-25T12:11:59.645Z,12.90
2019-01-25T12:14:30.130Z,13.20
2019-01-25T12:17:03.536Z,13.50
2019-01-25T12:19:33.892Z,13.60
2019-01-25T12:22:04.843Z,13.70
2019-01-25T12:24:35.459Z,13.60
2019-01-25T12:27:05.925Z,13.60
2019-01-25T12:29:36.409Z,13.40
2019-01-25T12:32:06.901Z,12.70
2019-01-25T12:34:37.387Z,11.60
2019-01-25T12:37:07.861Z,11.10
2019-01-25T12:39:39.020Z,11.20
2019-01-25T12:42:09.869Z,11.40
2019-01-25T12:44:40.387Z,11.60
2019-01-25T12:47:10.878Z,11.50
2019-01-25T12:49:41.436Z,11.50
2019-01-25T12:52:11.913Z,11.50
2019-01-25T12:54:42.380Z,11.70
2019-01-25T12:57:13.996Z,12.00
2019-01-25T12:59:44.455Z,12.10
2019-01-25T13:02:14.926Z,12.20
2019-01-25T13:04:45.381Z,12.50
2019-01-25T13:07:15.928Z,12.80
2019-01-25T13:09:46.422Z,12.90
2019-01-25T13:12:16.898Z,12.90
2019-01-25T13:14:47.462Z,12.80
2019-01-25T13:17:18.019Z,12.70
2019-01-25T13:19:48.591Z,12.30
2019-01-25T13:22:19.048Z,11.50
2019-01-25T13:24:49.511Z,11.10
2019-01-25T13:27:20.330Z,10.40
2019-01-25T13:29:51.065Z,9.50
2019-01-25T13:32:21.597Z,8.80
2019-01-25T13:34:52.121Z,8.10
2019-01-25T13:37:22.655Z,7.70
2019-01-25T13:39:53.134Z,7.70
2019-01-25T13:42:24.590Z,8.40
2019-01-25T13:44:56.272Z,9.00
2019-01-25T13:47:26.717Z,9.30
2019-01-25T13:49:57.230Z,9.20
2019-01-25T13:52:27.740Z,8.80
2019-01-25T13:54:58.205Z,8.40
2019-01-25T13:57:28.815Z,7.90
2019-01-25T13:59:59.321Z,7.40
2019-01-25T14:02:29.787Z,7.00
2019-01-25T14:05:00.254Z,6.70
2019-01-25T14:07:34.100Z,6.50
2019-01-25T14:10:06.649Z,6.20
2019-01-25T14:12:37.118Z,5.90
2019-01-25T14:15:08.813Z,5.60
2019-01-25T14:17:39.262Z,5.50
2019-01-25T14:20:13.358Z,5.40
2019-01-25T14:22:43.851Z,5.40
2019-01-25T14:25:14.335Z,5.40
2019-01-25T14:27:44.798Z,5.40
2019-01-25T14:30:21.838Z,5.30
2019-01-25T14:32:52.341Z,5.10
2019-01-25T14:35:22.927Z,5.10
2019-01-25T14:37:53.493Z,5.10
2019-01-25T14:40:24.190Z,5.00
2019-01-25T14:42:54.802Z,4.80
2019-01-25T14:45:25.320Z,4.70
2019-01-25T14:47:57.584Z,4.60
2019-01-25T14:50:29.086Z,4.40
2019-01-25T14:52:59.690Z,4.20
2019-01-25T14:55:30.315Z,4.10
2019-01-25T14:58:00.763Z,4.00
2019-01-25T15:00:31.514Z,3.90
2019-01-25T15:03:01.961Z,3.80
2019-01-25T15:05:32.418Z,3.70
2019-01-25T15:08:02.922Z,3.60
2019-01-25T15:10:35.027Z,3.50
2019-01-25T15:13:08.421Z,3.40
2019-01-25T15:15:39.636Z,3.30
2019-01-25T15:18:10.159Z,3.20
2019-01-25T15:20:40.652Z,3.20
2019-01-25T15:23:17.676Z,3.10
2019-01-25T15:25:48.943Z,3.10
2019-01-25T15:28:19.396Z,3.10
2019-01-25T15:30:49.965Z,3.00
2019-01-25T15:33:20.425Z,2.90
2019-01-25T15:35:50.885Z,2.80
2019-01-25T15:38:21.338Z,2.80
2019-01-25T15:40:52.014Z,2.70
2019-01-25T15:43:23.173Z,2.70
2019-01-25T15:45:53.763Z,2.60
2019-01-25T15:48:24.270Z,2.50
2019-01-25T15:50:54.736Z,2.40
2019-01-25T15:53:25.215Z,2.30
2019-01-25T15:55:55.777Z,2.20
2019-01-25T15:58:26.253Z,2.10
2019-01-25T16:00:57.651Z,2.00
2019-01-25T16:03:28.379Z,1.90
2019-01-25T16:05:58.848Z,1.80
2019-01-25T16:08:29.339Z,1.70
2019-01-25T16:10:59.946Z,1.60
2019-01-25T16:13:30.386Z,1.50
2019-01-25T16:16:00.885Z,1.50
2019-01-25T16:18:31.340Z,1.40
2019-01-25T16:21:01.797Z,1.30
2019-01-25T16:23:32.234Z,1.20
2019-01-25T16:26:02.701Z,1.20
2019-01-25T16:28:33.149Z,1.10
2019-01-25T16:31:03.936Z,1.00
2019-01-25T16:33:34.390Z,0.90
2019-01-25T16:36:04.863Z,0.90
2019-01-25T16:38:35.346Z,0.90
2019-01-25T16:41:05.895Z,0.80
2019-01-25T16:43:36.355Z,0.80
2019-01-25T16:46:06.947Z,0.70
2019-01-25T16:48:37.401Z,0.70
2019-01-25T16:51:07.905Z,0.70
2019-01-25T16:53:38.358Z,0.60
2019-01-25T16:56:09.687Z,0.60
2019-01-25T16:58:40.146Z,0.50
2019-01-25T17:01:10.619Z,0.50
2019-01-25T17:03:41.073Z,0.50
2019-01-25T17:06:11.527Z,0.40
2019-01-25T17:08:41.990Z,0.40
2019-01-25T17:11:12.990Z,0.30
2019-01-25T17:13:43.567Z,0.30
2019-01-25T17:16:14.089Z,0.20
2019-01-25T17:18:44.575Z,0.20
2019-01-25T17:21:15.033Z,0.20
2019-01-25T17:23:45.653Z,0.20
2019-01-25T17:26:19.031Z,0.20
2019-01-25T17:28:52.703Z,0.20
2019-01-25T17:31:23.201Z,0.20
2019-01-25T17:33:53.721Z,0.10
2019-01-25T17:36:24.347Z,0.10
2019-01-25T17:38:53.644Z,0.00
2019-01-25T17:41:22.903Z,0.00
2019-01-25T17:43:52.191Z,0.00
2019-01-25T17:46:21.450Z,-0.10
2019-01-25T17:48:50.718Z,-0.10
2019-01-25T17:51:20.004Z,-0.20
2019-01-25T17:53:49.291Z,-0.20
2019-01-25T17:56:18.616Z,-0.20
2019-01-25T17:58:47.965Z,-0.20
2019-01-25T18:01:17.233Z,-0.30
2019-01-25T18:03:46.635Z,-0.30
2019-01-25T18:06:15.963Z,-0.30
2019-01-25T18:08:45.349Z,-0.30
2019-01-25T18:11:14.648Z,-0.30
2019-01-25T18:13:45.375Z,-0.30
2019-01-25T18:16:15.870Z,-0.30
2019-01-25T18:18:46.546Z,-0.30
2019-01-25T18:21:17.114Z,-0.30
2019-01-25T18:23:47.830Z,-0.30
2019-01-25T18:26:21.883Z,-0.30
2019-01-25T18:29:14.507Z,-0.30
2019-01-25T18:31:45.318Z,-0.20
2019-01-25T18:34:15.787Z,-0.20
2019-01-25T18:36:46.259Z,-0.20
2019-01-25T18:39:16.758Z,-0.10
2019-01-25T18:41:47.356Z,-0.10
2019-01-25T18:44:17.842Z,0.00
2019-01-25T18:46:48.310Z,0.00
2019-01-25T18:49:18.834Z,0.00
2019-01-25T18:51:49.302Z,0.00
2019-01-25T18:54:19.781Z,-0.10
2019-01-25T18:56:51.696Z,-0.10
2019-01-25T18:59:22.205Z,-0.20
2019-01-25T19:01:52.722Z,-0.20
2019-01-25T19:04:23.213Z,-0.20
2019-01-25T19:06:53.759Z,-0.20
2019-01-25T19:09:24.282Z,-0.30
2019-01-25T19:11:54.773Z,-0.30
2019-01-25T19:14:25.243Z,-0.30
2019-01-25T19:16:55.693Z,-0.40
2019-01-25T19:19:26.573Z,-0.40
2019-01-25T19:21:57.063Z,-0.40
2019-01-25T19:24:27.583Z,-0.40
2019-01-25T19:26:58.059Z,-0.40
2019-01-25T19:29:28.607Z,-0.40
2019-01-25T19:31:59.106Z,-0.40
2019-01-25T19:34:29.617Z,-0.40
2019-01-25T19:37:00.975Z,-0.30
2019-01-25T19:39:31.444Z,-0.30
2019-01-25T19:42:01.959Z,-0.30
2019-01-25T19:44:32.439Z,-0.30
2019-01-25T19:47:02.917Z,-0.30
2019-01-25T19:49:33.412Z,-0.30
2019-01-25T19:52:03.899Z,-0.20
2019-01-25T19:54:34.506Z,-0.20
2019-01-25T19:57:05.181Z,-0.20
2019-01-25T19:59:35.679Z,-0.20
2019-01-25T20:02:06.202Z,-0.10
2019-01-25T20:04:36.742Z,-0.10
2019-01-25T20:07:07.252Z,-0.10
2019-01-25T20:09:37.735Z,0.00
2019-01-25T20:12:08.254Z,0.00
2019-01-25T20:14:38.737Z,0.00
2019-01-25T20:17:09.271Z,0.00
2019-01-25T20:19:39.750Z,0.00
2019-01-25T20:22:10.215Z,0.00
2019-01-25T20:24:40.714Z,0.00
2019-01-25T20:27:11.219Z,0.00
2019-01-25T20:29:41.714Z,0.00
2019-01-25T20:32:12.188Z,0.00
2019-01-25T20:34:42.639Z,0.00
2019-01-25T20:37:13.126Z,-0.10
2019-01-25T20:39:43.602Z,-0.10
2019-01-25T20:42:14.173Z,-0.10
2019-01-25T20:44:45.628Z,0.00
2019-01-25T20:47:16.127Z,0.00
2019-01-25T20:49:46.620Z,0.00
2019-01-25T20:52:17.086Z,0.00
2019-01-25T20:54:47.606Z,0.00
2019-01-25T20:57:18.086Z,0.00
2019-01-25T20:59:48.880Z,0.10
2019-01-25T21:02:19.378Z,0.10
2019-01-25T21:04:49.883Z,0.10
2019-01-25T21:07:20.359Z,0.20
2019-01-25T21:09:51.143Z,0.20
2019-01-25T21:12:21.624Z,0.30
2019-01-25T21:14:52.101Z,0.30
2019-01-25T21:17:22.573Z,0.30
2019-01-25T21:19:53.045Z,0.40
2019-01-25T21:22:23.530Z,0.40
2019-01-25T21:24:54.023Z,0.40
2019-01-25T21:27:24.487Z,0.40
2019-01-25T21:29:55.071Z,0.40
2019-01-25T21:32:25.533Z,0.50
2019-01-25T21:34:56.213Z,0.50
2019-01-25T21:37:26.738Z,0.60
2019-01-25T21:39:57.217Z,0.60
2019-01-25T21:42:27.694Z,0.60
2019-01-25T21:44:58.202Z,0.60
2019-01-25T21:47:28.757Z,0.60
2019-01-25T21:49:59.242Z,0.60
2019-01-25T21:52:29.822Z,0.70
2019-01-25T21:55:00.339Z,0.70
2019-01-25T21:57:30.806Z,0.70
2019-01-25T22:00:01.687Z,0.70
2019-01-25T22:02:33.406Z,0.70
2019-01-25T22:05:04.082Z,0.70
2019-01-25T22:07:34.651Z,0.70
2019-01-25T22:10:08.529Z,0.70
2019-01-25T22:12:39.101Z,0.70
2019-01-25T22:15:10.567Z,0.70
2019-01-25T22:17:41.075Z,0.70
2019-01-25T22:20:15.018Z,0.70
2019-01-25T22:22:45.937Z,0.70
2019-01-25T22:25:16.554Z,0.70
2019-01-25T22:27:48.701Z,0.70
2019-01-25T22:30:21.190Z,0.70
2019-01-25T22:32:51.649Z,0.70
2019-01-25T22:35:22.153Z,0.70
2019-01-25T22:37:53.288Z,0.70
2019-01-25T22:40:28.492Z,0.70
2019-01-25T22:42:59.196Z,0.70
2019-01-25T22:45:30.984Z,0.70
2019-01-25T22:48:02.827Z,0.70
2019-01-25T22:50:35.514Z,0.70
2019-01-25T22:53:06.005Z,0.70
2019-01-25T22:55:36.695Z,0.70
2019-01-25T22:58:07.141Z,0.70
2019-01-25T23:01:14.751Z,0.70
2019-01-25T23:04:14.311Z,0.70
2019-01-25T23:06:51.382Z,0.60
2019-01-25T23:09:30.930Z,0.60
2019-01-25T23:12:01.406Z,0.60
2019-01-25T23:14:31.912Z,0.60
2019-01-25T23:17:02.411Z,0.60
2019-01-25T23:19:32.916Z,0.60
2019-01-25T23:22:03.397Z,0.60
2019-01-25T23:24:34.997Z,0.60
2019-01-25T23:27:05.554Z,0.60
2019-01-25T23:29:36.046Z,0.70
2019-01-25T23:32:06.579Z,0.70
2019-01-25T23:35:03.390Z,0.70
2019-01-25T23:37:38.522Z,0.70
2019-01-25T23:40:12.057Z,0.70
2019-01-25T23:42:42.546Z,0.70
2019-01-25T23:45:13.330Z,0.70
2019-01-25T23:47:43.781Z,0.70
2019-01-25T23:50:14.384Z,0.70
2019-01-25T23:52:44.839Z,0.80
2019-01-25T23:55:15.567Z,0.70
2019-01-25T23:57:47.035Z,0.80
